Главная страница
METAR-TAF:

METAR-TAF

Аэропорты :

NWS Office

Маджуро, Маршалловы Острова

широта: 07-05N, долгота: 171-12E, высота над уровнем моря: 4 м

Текущие метеонаблюдения

Эта сводка был подготовлена 25 минут назад, в 20:54 UTC
Ветер 7 Узел от восточно-северо-восточный
Температура 29°C
Влажность 74%
Давление 1011 hPa
Видимость: 24.1 км
небольшая облачность на высоте 1500 фута
Отдельные облака на высоте 5000 фута
Рассеянная облачность на высоте 12000 фута
Сплошная облачность на высоте 30000 фута

METAR: PKMR 132054Z 07007KT 15SM FEW015 SCT050 BKN120 OVC300 29/24 A2984 RMK SLP107 8/878 T02900239 52012

Время: 09:19 (21:19 UTC)


TAF: отсутствует

Метеонаблюдения и прогнозы для более 4000 аэропортов (сводки METAR и TAF).

Имеющиеся станции представлены на карте желтыми и красными точками.

Чтобы увидеть название станции, наведите на нее мышь.

Затем щелкните, чтобы увидеть метеонаблюдения и метеопрогнозы.

Управление картой: чтобы увеличить масштаб, щелкните зеленые кнопки с черным крестиком; чтобы уменьшить масштаб, щелкните зеленую кнопку с тире; для просмотра соседних карт щелкайте зеленые стрелки.


METAR-TAF: